Ashland, WI

7:05 AM CST on February 13, 2016 (GMT -0600)
Kennedy Memorial | | Change Station
CLOSE
Current Station
Airport
Location: Ashland,
Elevation: 823 ft
Nearby Weather Stations
Active Advisory: Wind Chill Advisory

Elev 823 ft 46.55 °N, 90.92 °W | Updated 12 minutes ago

Mostly Cloudy
Mostly Cloudy
-12 °F
Feels Like -22 °F
N
4
Wind Variable Wind from WSW

Today
High -- | Low -- °F
--% Chance of Precip.
Yesterday
High -- | Low -- °F
Precip. -- in
Pressure 30.65 in
Visibility 10.0 miles
Clouds Mostly Cloudy 1900 ft
Windchill -22 °F
Dew Point -15 °F
Humidity 86%
Rainfall 0.00 in
Snow Depth Not available.
7:11 AM 5:25 PM
Waxing Crescent, 30% visible
METAR KASX 131253Z AUTO 24003KT 10SM BKN019 M24/M26 A3056 RMK AO2 SLP377 T12441261
Pressure 30.65 in
Visibility 10.0 miles
Clouds Mostly Cloudy 1900 ft
Windchill -22 °F
Dew Point -15 °F
Humidity 86%
Rainfall 0.00 in
Snow Depth Not available.
7:11 AM 5:25 PM
Waxing Crescent, 30% visible
METAR KASX 131253Z AUTO 24003KT 10SM BKN019 M24/M26 A3056 RMK AO2 SLP377 T12441261

10-Day Weather Forecast

Almanac

Astronomy

Feb. 13, 2016 Rise Set
Actual Time
Civil Twilight
Nautical Twilight
Astronomical Twilight
Moon
Length of Visible Light
Length of Day
Tomorrow will be .
, % of the Moon is Illuminated

Today's Extremes

State Highs State Lows

Community

WunderPhotos

Upload Photos

1,892,545 photos uploaded!

WunderBlog® & News

Nearby

Air Quality

  Air Quality AQ Index Pollutant
Not available.

Snow Depth

Station Depth Elevation

Earthquake Activity

City Distance Mag. Time & Date
Minimum magnitude displayed is 2.5.

Coastal Water Temperatures

Place Temperature

Stations

Nearby Weather Stations

Station Location Temp. Windchill Dew Point Humidity Wind Precip. Elev Updated Type
                   

Watches & Warnings

Wind Chill Advisory
Issued: 3:39 AM CST Feb. 13, 2016 – National Weather Service

... Wind Chill Advisory remains in effect until 9 am CST this
morning...

* wind chill values... expect wind chills to range from 20 below
zero to 35 below zero through this morning.

* Impacts... the cold wind chills can cause frostbite on exposed
skin in as little 30 minutes.

Precautionary/preparedness actions...

A Wind Chill Advisory means that cold air and the wind will
combine to create low wind chills. Frost bite and hypothermia can
occur if precautions are not taken. Make sure you wear a hat and
gloves.


Jjm